createdAt,value
2019-06-07T00:01:58.364Z,24.02
2019-06-07T00:04:03.630Z,23.33
2019-06-07T00:06:15.088Z,23.33
2019-06-07T00:08:24.974Z,22.60
2019-06-07T00:10:35.957Z,22.17
2019-06-07T00:12:33.229Z,19.23
2019-06-07T00:14:38.453Z,22.70
2019-06-07T00:16:43.631Z,22.57
2019-06-07T00:18:48.756Z,21.77
2019-06-07T00:20:53.994Z,20.93
2019-06-07T00:22:59.202Z,23.30
2019-06-07T00:25:04.971Z,22.23
2019-06-07T00:27:11.310Z,21.67
2019-06-07T00:29:18.991Z,20.03
2019-06-07T00:31:24.777Z,20.50
2019-06-07T00:33:30.468Z,22.23
2019-06-07T00:35:35.648Z,20.83
2019-06-07T00:37:40.830Z,21.70
2019-06-07T00:39:45.981Z,22.67
2019-06-07T00:41:51.486Z,21.15
2019-06-07T00:43:56.967Z,19.12
2019-06-07T00:46:02.404Z,23.77
2019-06-07T00:48:07.701Z,18.73
2019-06-07T00:50:16.480Z,18.90
2019-06-07T00:53:11.596Z,19.50
2019-06-07T00:54:28.674Z,20.30
2019-06-07T00:56:34.147Z,19.12
2019-06-07T00:58:39.594Z,19.62
2019-06-07T01:00:44.766Z,19.47
2019-06-07T01:02:50.194Z,20.05
2019-06-07T01:04:55.791Z,18.95
2019-06-07T01:07:01.243Z,18.32
2019-06-07T01:09:08.266Z,19.70
2019-06-07T01:11:13.641Z,19.50
2019-06-07T01:13:22.333Z,19.40
2019-06-07T01:15:29.133Z,22.98
2019-06-07T01:17:43.501Z,22.58
2019-06-07T01:19:40.777Z,21.10
2019-06-07T01:21:46.199Z,21.33
2019-06-07T01:24:10.746Z,20.30
2019-06-07T01:25:58.767Z,20.62
2019-06-07T01:28:04.294Z,23.50
2019-06-07T01:30:10.982Z,20.80
2019-06-07T01:32:17.455Z,19.63
2019-06-07T01:34:25.688Z,20.30
2019-06-07T01:36:31.144Z,19.67
2019-06-07T01:38:36.432Z,19.13
2019-06-07T01:40:41.652Z,18.47
2019-06-07T01:42:47.122Z,17.23
2019-06-07T01:44:52.694Z,20.02
2019-06-07T01:46:58.218Z,19.17
2019-06-07T01:49:03.402Z,18.03
2019-06-07T01:51:08.903Z,19.30
2019-06-07T01:53:14.100Z,18.60
2019-06-07T01:55:23.099Z,19.42
2019-06-07T01:57:38.337Z,18.40
2019-06-07T01:59:33.865Z,20.30
2019-06-07T02:01:39.375Z,20.68
2019-06-07T02:03:44.527Z,22.13
2019-06-07T02:05:49.967Z,24.57
2019-06-07T02:07:55.122Z,25.37
2019-06-07T02:10:00.265Z,25.43
2019-06-07T02:12:25.165Z,22.00
2019-06-07T02:14:12.819Z,22.17
2019-06-07T02:16:19.349Z,20.32
2019-06-07T02:18:28.085Z,19.00
2019-06-07T02:20:34.543Z,20.23
2019-06-07T02:22:39.695Z,21.13
2019-06-07T02:24:45.127Z,19.07
2019-06-07T02:26:50.311Z,19.83
2019-06-07T02:28:55.503Z,19.00
2019-06-07T02:31:00.868Z,19.03
2019-06-07T02:33:06.123Z,20.30
2019-06-07T02:35:11.363Z,20.20
2019-06-07T02:37:16.790Z,19.62
2019-06-07T02:39:25.254Z,18.98
2019-06-07T02:41:35.477Z,18.97
2019-06-07T02:43:37.063Z,19.63
2019-06-07T02:45:43.869Z,18.48
2019-06-07T02:47:49.385Z,20.43
2019-06-07T02:49:54.815Z,19.23
2019-06-07T02:52:00.389Z,18.37
2019-06-07T02:54:05.968Z,16.80
2019-06-07T02:56:37.922Z,17.17
2019-06-07T02:58:18.453Z,15.75
2019-06-07T03:01:04.123Z,15.85
2019-06-07T03:02:53.671Z,14.45
2019-06-07T03:04:59.044Z,15.40
2019-06-07T03:07:04.471Z,15.73
2019-06-07T03:09:10.244Z,17.27
2019-06-07T03:11:16.784Z,17.70
2019-06-07T03:13:23.336Z,17.10
2019-06-07T03:15:39.250Z,15.80
2019-06-07T03:17:59.116Z,17.42
2019-06-07T03:20:07.038Z,15.72
2019-06-07T03:22:12.486Z,14.60
2019-06-07T03:24:18.003Z,14.75
2019-06-07T03:26:27.457Z,16.02
2019-06-07T03:28:36.085Z,16.02
2019-06-07T03:30:59.989Z,15.25
2019-06-07T03:32:48.413Z,16.10
2019-06-07T03:34:53.999Z,13.90
2019-06-07T03:36:59.463Z,12.43
2019-06-07T03:39:06.797Z,13.68
2019-06-07T03:41:12.001Z,14.53
2019-06-07T03:43:17.408Z,11.80
2019-06-07T03:45:23.138Z,13.20
2019-06-07T03:47:31.940Z,12.37
2019-06-07T03:49:37.527Z,12.67
2019-06-07T03:51:42.425Z,15.23
2019-06-07T03:53:47.963Z,15.40
2019-06-07T03:55:53.444Z,14.63
2019-06-07T03:58:30.653Z,14.13
2019-06-07T04:00:06.952Z,13.00
2019-06-07T04:02:12.408Z,14.33
2019-06-07T04:04:17.611Z,13.10
2019-06-07T04:06:23.150Z,15.18
2019-06-07T04:08:28.316Z,15.70
2019-06-07T04:10:55.727Z,13.10
2019-06-07T04:12:44.092Z,13.83
2019-06-07T04:14:48.146Z,13.40
2019-06-07T04:16:53.631Z,14.90
2019-06-07T04:18:59.087Z,15.53
2019-06-07T04:21:04.722Z,11.95
2019-06-07T04:23:27.318Z,12.73
2019-06-07T04:25:16.875Z,12.60
2019-06-07T04:27:22.108Z,12.50
2019-06-07T04:29:33.991Z,11.80
2019-06-07T04:31:36.282Z,12.50
2019-06-07T04:33:43.606Z,11.30
2019-06-07T04:35:48.294Z,11.50
2019-06-07T04:37:53.833Z,10.40
2019-06-07T04:40:00.938Z,10.30
2019-06-07T04:42:06.116Z,10.13
2019-06-07T04:44:11.828Z,9.27
2019-06-07T04:46:17.922Z,9.20
2019-06-07T04:48:23.231Z,9.87
2019-06-07T04:50:33.907Z,10.53
2019-06-07T04:52:42.714Z,9.40
2019-06-07T04:54:45.920Z,8.90
2019-06-07T04:56:51.110Z,8.80
2019-06-07T04:58:56.304Z,7.93
2019-06-07T05:01:03.629Z,8.00
2019-06-07T05:03:08.316Z,9.30
2019-06-07T05:05:13.637Z,8.37
2019-06-07T05:07:18.762Z,7.67
2019-06-07T05:09:23.942Z,7.30
2019-06-07T05:11:31.483Z,8.10
2019-06-07T05:13:38.997Z,8.40
2019-06-07T05:15:44.125Z,9.00
2019-06-07T05:17:49.357Z,6.80
2019-06-07T05:19:55.087Z,8.17
2019-06-07T05:22:06.974Z,8.40
2019-06-07T05:24:12.266Z,7.87
2019-06-07T05:26:17.770Z,8.77
2019-06-07T05:28:23.835Z,9.60
2019-06-07T05:32:46.726Z,8.07
2019-06-07T05:34:51.859Z,9.33
2019-06-07T05:37:11.116Z,8.97
2019-06-07T05:39:05.847Z,7.63
2019-06-07T05:41:11.090Z,8.27
2019-06-07T05:43:27.658Z,7.90
2019-06-07T05:45:38.465Z,7.70
2019-06-07T05:47:50.167Z,7.90
2019-06-07T05:49:50.236Z,7.37
2019-06-07T05:51:57.367Z,8.50
2019-06-07T05:54:07.250Z,7.70
2019-06-07T05:56:13.082Z,9.33
2019-06-07T05:58:19.484Z,6.93
2019-06-07T06:00:25.220Z,7.97
2019-06-07T06:02:30.936Z,7.23
2019-06-07T06:04:39.301Z,7.47
2019-06-07T06:06:46.891Z,6.90
2019-06-07T06:08:51.533Z,7.80
2019-06-07T06:10:57.145Z,7.73
2019-06-07T06:13:03.242Z,7.17
2019-06-07T06:15:10.235Z,8.10
2019-06-07T06:17:16.066Z,7.77
2019-06-07T06:19:21.831Z,6.23
2019-06-07T06:21:27.191Z,7.77
2019-06-07T06:23:32.338Z,8.47
2019-06-07T06:25:41.239Z,7.47
2019-06-07T06:29:52.488Z,7.73
2019-06-07T06:34:05.415Z,7.80
2019-06-07T06:36:10.765Z,7.37
2019-06-07T06:38:17.994Z,7.30
2019-06-07T06:40:23.920Z,7.20
2019-06-07T06:42:29.056Z,8.23
2019-06-07T06:44:34.275Z,8.30
2019-06-07T06:46:46.155Z,7.90
2019-06-07T06:48:51.724Z,8.40
2019-06-07T06:50:53.201Z,7.33
2019-06-07T06:52:58.335Z,6.90
2019-06-07T06:55:03.552Z,7.47
2019-06-07T06:57:19.413Z,7.03
2019-06-07T06:59:38.083Z,7.27
2019-06-07T07:01:23.446Z,6.73
2019-06-07T07:03:56.799Z,6.37
2019-06-07T07:05:37.551Z,6.23
2019-06-07T07:07:45.129Z,5.20
2019-06-07T07:09:54.757Z,5.77
2019-06-07T07:12:10.907Z,5.50
2019-06-07T07:14:03.992Z,4.80
2019-06-07T07:16:09.167Z,5.60
2019-06-07T07:18:14.962Z,5.10
2019-06-07T07:20:20.140Z,5.60
2019-06-07T07:22:25.274Z,6.37
2019-06-07T07:24:30.418Z,5.20
2019-06-07T07:26:35.686Z,5.40
2019-06-07T07:28:42.824Z,5.80
2019-06-07T07:30:56.428Z,5.70
2019-06-07T07:33:01.438Z,4.70
2019-06-07T07:35:06.682Z,4.30
2019-06-07T07:37:11.896Z,4.83
2019-06-07T07:39:17.321Z,5.87
2019-06-07T07:41:22.606Z,4.40
2019-06-07T07:43:27.867Z,5.10
2019-06-07T07:45:33.035Z,4.83
2019-06-07T07:47:58.461Z,4.70
2019-06-07T07:49:47.536Z,4.83
2019-06-07T07:51:56.103Z,4.60
2019-06-07T07:54:10.151Z,4.87
2019-06-07T07:56:06.073Z,4.50
2019-06-07T07:58:11.695Z,3.53
2019-06-07T08:00:49.715Z,4.50
2019-06-07T08:02:24.166Z,4.43
2019-06-07T08:05:12.128Z,4.93
2019-06-07T08:06:36.127Z,5.33
2019-06-07T08:08:41.259Z,5.07
2019-06-07T08:10:50.384Z,5.60
2019-06-07T08:13:16.257Z,5.20
2019-06-07T08:15:03.238Z,5.43
2019-06-07T08:17:07.000Z,5.20
2019-06-07T08:19:13.147Z,5.63
2019-06-07T08:21:25.787Z,5.23
2019-06-07T08:23:25.447Z,4.87
2019-06-07T08:25:30.568Z,4.50
2019-06-07T08:27:35.706Z,5.43
2019-06-07T08:29:45.643Z,5.07
2019-06-07T08:31:48.327Z,4.17
2019-06-07T08:33:58.050Z,4.00
2019-06-07T08:36:21.839Z,4.40
2019-06-07T08:38:25.787Z,3.90
2019-06-07T08:40:21.212Z,4.00
2019-06-07T08:42:37.145Z,4.13
2019-06-07T08:44:33.339Z,4.30
2019-06-07T08:46:38.504Z,4.70
2019-06-07T08:48:43.619Z,4.63
2019-06-07T08:50:48.752Z,4.57
2019-06-07T08:53:00.001Z,5.30
2019-06-07T08:55:04.493Z,4.60
2019-06-07T08:57:20.562Z,4.47
2019-06-07T08:59:14.382Z,4.30
2019-06-07T09:01:21.367Z,5.10
2019-06-07T09:03:26.510Z,4.10
2019-06-07T09:05:37.047Z,3.90
2019-06-07T09:07:42.410Z,4.00
2019-06-07T09:10:36.546Z,4.20
2019-06-07T09:13:48.049Z,5.30
2019-06-07T09:20:52.509Z,4.57
2019-06-07T09:23:06.212Z,4.27
2019-06-07T09:25:14.708Z,4.93
2019-06-07T09:27:12.607Z,5.13
2019-06-07T09:29:17.971Z,4.60
2019-06-07T09:31:23.100Z,4.40
2019-06-07T09:33:28.246Z,5.97
2019-06-07T09:35:33.486Z,4.93
2019-06-07T09:38:04.177Z,5.00
2019-06-07T09:39:46.080Z,5.17
2019-06-07T09:41:51.265Z,5.27
2019-06-07T09:44:19.106Z,4.93
2019-06-07T09:46:09.654Z,5.07
2019-06-07T09:48:15.895Z,5.63
2019-06-07T09:50:17.795Z,4.73
2019-06-07T09:52:23.598Z,5.00
2019-06-07T09:55:03.842Z,4.77
2019-06-07T09:56:36.688Z,5.37
2019-06-07T09:58:52.674Z,4.90
2019-06-07T10:00:49.913Z,4.73
2019-06-07T10:03:02.231Z,5.37
2019-06-07T10:05:06.995Z,4.53
2019-06-07T10:07:30.762Z,4.87
2019-06-07T10:10:09.201Z,4.80
2019-06-07T10:11:27.023Z,4.40
2019-06-07T10:13:32.196Z,4.47
2019-06-07T10:15:38.317Z,4.30
2019-06-07T10:17:43.434Z,5.50
2019-06-07T10:19:48.595Z,4.63
2019-06-07T10:21:53.836Z,4.60
2019-06-07T10:23:59.267Z,5.10
2019-06-07T10:26:05.966Z,5.80
2019-06-07T10:28:13.560Z,5.60
2019-06-07T10:30:21.590Z,5.53
2019-06-07T10:32:44.654Z,5.03
2019-06-07T10:34:57.538Z,4.50
2019-06-07T10:37:03.808Z,4.87
2019-06-07T10:39:10.940Z,5.03
2019-06-07T10:41:16.326Z,4.37
2019-06-07T10:43:21.446Z,5.00
2019-06-07T10:45:26.582Z,5.07
2019-06-07T10:47:31.711Z,4.47
2019-06-07T10:49:36.844Z,5.07
2019-06-07T10:51:41.987Z,4.70
2019-06-07T10:53:47.463Z,5.47
2019-06-07T10:55:52.599Z,5.60
2019-06-07T10:57:57.832Z,4.97
2019-06-07T11:00:03.465Z,5.77
2019-06-07T11:02:09.753Z,4.70
2019-06-07T11:04:14.967Z,4.80
2019-06-07T11:06:20.186Z,4.87
2019-06-07T14:56:35.580Z,4.20
2019-06-07T14:58:43.423Z,7.37
2019-06-07T15:00:48.657Z,4.87
2019-06-07T15:02:57.430Z,4.03
2019-06-07T15:05:03.410Z,4.53
2019-06-07T15:07:10.218Z,4.77
2019-06-07T15:09:15.422Z,4.37
2019-06-07T15:11:21.935Z,5.63
2019-06-07T15:13:27.541Z,4.70
2019-06-07T15:15:34.607Z,4.80
2019-06-07T15:17:42.515Z,5.90
2019-06-07T15:19:48.016Z,5.47
2019-06-07T15:21:53.322Z,4.83
2019-06-07T15:23:58.487Z,4.27
2019-06-07T15:26:03.783Z,4.37
2019-06-07T15:28:09.401Z,5.33
2019-06-07T15:30:15.523Z,4.77
2019-06-07T15:32:20.954Z,5.20
2019-06-07T15:34:29.218Z,4.90
2019-06-07T15:36:36.320Z,4.77
2019-06-07T15:38:41.924Z,4.63
2019-06-07T15:40:49.411Z,4.70
2019-06-07T15:42:57.394Z,4.10
2019-06-07T15:45:02.701Z,4.50
2019-06-07T15:47:07.975Z,4.87
2019-06-07T15:49:13.717Z,5.03
2019-06-07T15:51:20.506Z,4.70
2019-06-07T15:53:32.733Z,4.20
2019-06-07T15:55:43.885Z,4.90
2019-06-07T15:57:45.511Z,4.30
2019-06-07T15:59:50.834Z,4.47
2019-06-07T16:01:56.024Z,4.30
2019-06-07T16:04:01.437Z,3.70
2019-06-07T16:06:06.754Z,3.90
2019-06-07T17:01:28.823Z,4.60
2019-06-07T17:03:34.086Z,4.10
2019-06-07T17:05:39.553Z,3.90
2019-06-07T17:07:46.971Z,5.63
2019-06-07T17:09:53.236Z,5.27
2019-06-07T17:11:59.235Z,4.33
2019-06-07T17:14:05.863Z,4.93
2019-06-07T17:16:12.206Z,5.07
2019-06-07T17:18:17.415Z,4.93
2019-06-07T17:20:23.172Z,5.10
2019-06-07T17:22:28.444Z,4.63
2019-06-07T17:24:33.599Z,4.93
2019-06-07T17:26:39.404Z,4.77
2019-06-07T17:28:45.825Z,5.87
2019-06-07T17:30:50.986Z,5.10
2019-06-07T17:32:59.272Z,4.73
2019-06-07T17:35:03.048Z,4.40
2019-06-07T17:37:08.276Z,4.47
2019-06-07T17:39:13.406Z,4.67
2019-06-07T17:41:18.578Z,6.43
2019-06-07T17:43:23.845Z,4.63
2019-06-07T17:45:29.260Z,5.30
2019-06-07T17:47:34.499Z,4.30
2019-06-07T17:49:39.765Z,4.43
2019-06-07T17:51:45.859Z,5.27
2019-06-07T17:53:52.242Z,4.90
2019-06-07T17:55:57.419Z,5.47
2019-06-07T17:58:03.013Z,5.33
2019-06-07T18:00:27.764Z,5.20
2019-06-07T18:02:16.085Z,5.00
2019-06-07T18:04:21.347Z,4.97
2019-06-07T18:06:27.083Z,4.83
2019-06-07T18:08:32.521Z,5.80
2019-06-07T18:10:38.920Z,7.23
2019-06-07T18:12:44.098Z,4.67
2019-06-07T18:14:49.993Z,5.47
2019-06-07T18:16:55.187Z,5.77
2019-06-07T18:19:00.373Z,4.87
2019-06-07T18:21:05.626Z,5.13
2019-06-07T18:23:11.702Z,5.80
2019-06-07T18:25:16.944Z,4.93
2019-06-07T18:27:22.075Z,6.13
2019-06-07T18:29:27.247Z,6.03
2019-06-07T18:31:32.440Z,5.70
2019-06-07T18:33:37.570Z,6.20
2019-06-07T18:35:42.736Z,5.60
2019-06-07T18:37:48.916Z,5.50
2019-06-07T18:39:55.289Z,5.53
2019-06-07T18:42:00.955Z,5.50
2019-06-07T18:44:20.852Z,6.00
2019-06-07T18:46:15.370Z,5.13
2019-06-07T18:48:21.069Z,5.40
2019-06-07T18:50:26.391Z,6.57
2019-06-07T18:52:33.945Z,6.80
2019-06-07T18:54:39.450Z,6.17
2019-06-07T18:56:44.878Z,6.30
2019-06-07T18:58:51.067Z,6.67
2019-06-07T19:00:57.602Z,7.17
2019-06-07T19:03:06.687Z,6.43
2019-06-07T19:05:12.790Z,6.67
2019-06-07T19:07:22.678Z,7.13
2019-06-07T19:09:27.932Z,7.07
2019-06-07T19:11:33.654Z,6.90
2019-06-07T19:13:38.889Z,6.17
2019-06-07T19:15:44.231Z,5.97
2019-06-07T19:17:49.806Z,6.13
2019-06-07T19:19:56.192Z,7.50
2019-06-07T19:22:03.444Z,6.77
2019-06-07T19:24:08.844Z,7.00
2019-06-07T19:26:14.613Z,6.77
2019-06-07T19:28:19.833Z,8.40
2019-06-07T19:30:25.048Z,7.40
2019-06-07T19:32:36.337Z,7.83
2019-06-07T19:34:42.982Z,7.20
2019-06-07T19:36:49.195Z,8.13
2019-06-07T19:38:55.814Z,7.93
2019-06-07T19:41:18.176Z,7.50
2019-06-07T19:43:11.964Z,7.80
2019-06-07T19:45:29.580Z,8.00
2019-06-07T19:47:24.535Z,7.73
2019-06-07T19:49:37.105Z,8.70
2019-06-07T19:51:43.850Z,7.60
2019-06-07T19:53:51.406Z,8.47
2019-06-07T19:56:01.333Z,8.80
2019-06-07T19:58:09.924Z,7.53
2019-06-07T20:00:19.656Z,7.90
2019-06-07T20:02:24.936Z,8.70
2019-06-07T20:04:30.582Z,7.57
2019-06-07T20:06:35.978Z,7.60
2019-06-07T20:08:41.212Z,7.97
2019-06-07T20:10:48.868Z,7.73
2019-06-07T20:12:54.522Z,8.87
2019-06-07T20:15:18.945Z,8.10
2019-06-07T20:17:07.339Z,8.60
2019-06-07T20:19:12.578Z,7.70
2019-06-07T20:21:17.980Z,8.60
2019-06-07T20:23:23.163Z,8.37
2019-06-07T20:25:28.278Z,8.13
2019-06-07T20:27:33.436Z,8.27
2019-06-07T20:29:38.957Z,8.23
2019-06-07T20:31:46.451Z,7.80
2019-06-07T20:33:51.607Z,8.07
2019-06-07T20:35:56.863Z,8.03
2019-06-07T20:38:03.811Z,7.13
2019-06-07T20:40:23.564Z,8.57
2019-06-07T20:42:17.440Z,7.87
2019-06-07T20:44:24.382Z,9.13
2019-06-07T20:46:30.825Z,9.80
2019-06-07T20:48:36.511Z,9.10
2019-06-07T20:50:41.886Z,8.53
2019-06-07T20:52:47.023Z,8.80
2019-06-07T20:54:52.143Z,8.50
2019-06-07T20:56:58.947Z,9.97
2019-06-07T20:59:06.839Z,8.83
2019-06-07T21:01:15.435Z,7.77
2019-06-07T21:03:22.160Z,8.73
2019-06-07T21:05:27.754Z,8.40
2019-06-07T21:07:33.152Z,8.63
2019-06-07T21:09:38.389Z,8.73
2019-06-07T21:11:44.135Z,8.97
2019-06-07T21:13:49.579Z,8.40
2019-06-07T21:15:55.360Z,10.60
2019-06-07T21:18:00.676Z,11.00
2019-06-07T21:20:07.644Z,8.93
2019-06-07T21:22:12.906Z,8.60
2019-06-07T21:24:18.143Z,8.40
2019-06-07T21:26:23.378Z,8.60
2019-06-07T21:28:28.579Z,8.77
2019-06-07T21:30:33.905Z,8.80
2019-06-07T21:32:39.047Z,8.37
2019-06-07T21:34:44.250Z,9.03
2019-06-07T21:36:49.471Z,9.00
2019-06-07T21:38:54.706Z,9.40
2019-06-07T21:40:59.881Z,9.37
2019-06-07T21:43:06.264Z,8.97
2019-06-07T21:45:13.540Z,8.70
2019-06-07T21:47:18.780Z,9.30
2019-06-07T21:49:24.120Z,7.40
2019-06-07T21:51:29.355Z,7.90
2019-06-07T21:53:37.906Z,9.00
2019-06-07T21:55:43.095Z,8.33
2019-06-07T21:57:48.298Z,9.77
2019-06-07T21:59:53.494Z,9.30
2019-06-07T22:01:58.621Z,8.70
2019-06-07T22:04:03.783Z,8.83
2019-06-07T22:06:09.698Z,8.53
2019-06-07T22:08:19.919Z,7.77
2019-06-07T22:10:25.065Z,10.97
2019-06-07T22:12:30.232Z,8.50
2019-06-07T22:14:35.410Z,9.90
2019-06-07T22:16:40.591Z,9.07
2019-06-07T22:18:45.720Z,8.57
2019-06-07T22:20:50.867Z,9.00
2019-06-07T22:22:56.057Z,8.30
2019-06-07T22:25:01.366Z,8.63
2019-06-07T22:27:07.098Z,9.30
2019-06-07T22:29:12.461Z,10.23
2019-06-07T22:31:19.160Z,9.43
2019-06-07T22:33:24.468Z,9.97
2019-06-07T22:35:29.640Z,10.27
2019-06-07T22:37:34.779Z,9.53
2019-06-07T22:39:40.335Z,9.35
2019-06-07T22:41:45.554Z,10.27
2019-06-07T22:43:50.704Z,9.30
2019-06-07T22:45:56.142Z,9.73
2019-06-07T22:48:01.555Z,8.20
2019-06-07T22:50:08.561Z,9.45
2019-06-07T22:52:15.330Z,9.10
2019-06-07T22:54:20.706Z,10.03
2019-06-07T22:56:31.523Z,8.95
2019-06-07T22:58:37.019Z,10.63
2019-06-07T23:00:42.159Z,9.53
2019-06-07T23:02:47.866Z,8.73
2019-06-07T23:04:53.814Z,10.08
2019-06-07T23:06:59.400Z,9.88
2019-06-07T23:09:05.929Z,10.40
2019-06-07T23:11:11.414Z,9.18
2019-06-07T23:13:17.832Z,9.78
2019-06-07T23:15:23.420Z,9.95
2019-06-07T23:17:28.693Z,10.10
2019-06-07T23:19:33.966Z,10.30
2019-06-07T23:21:39.458Z,10.20
2019-06-07T23:23:44.595Z,9.03
2019-06-07T23:25:50.122Z,9.58
2019-06-07T23:27:55.265Z,8.83
2019-06-07T23:30:07.968Z,9.60
2019-06-07T23:32:07.371Z,9.73
2019-06-07T23:34:13.024Z,9.23
2019-06-07T23:36:19.291Z,8.45
2019-06-07T23:38:24.531Z,9.47
2019-06-07T23:40:30.153Z,9.78
2019-06-07T23:42:35.686Z,10.88
2019-06-07T23:44:40.892Z,9.30
2019-06-07T23:46:47.901Z,10.50
2019-06-07T23:48:53.425Z,10.70
2019-06-07T23:51:03.412Z,10.28
2019-06-07T23:53:09.076Z,11.00
2019-06-07T23:55:15.869Z,10.30
2019-06-07T23:57:22.643Z,9.10
2019-06-07T23:59:27.940Z,11.13
